Bei Facebook empfehlenBei Twitter postenGoogle plusPinterest

Das Wetter im Erzgebirge am 24.03.2017

Wetter und Klima am 24.03.2017 Holzhau im Erzgebirge (630m ü.NN)
Letzte gemessene Temperatur und Uhrzeit der Messung23:45:00 Uhr-2.10 °C
Temperatur (Maximum / Höchstwert) und Uhrzeit der Messung15:45:00 Uhr10.80 °C
Temperatur (Minimum / Tiefstwert) und Uhrzeit der Messung23:45:00-2.10 °C
Errechneter Absolutwert der Temperaturschwankungen zwischen Tmin und Tmax des Tages12.90 K
Errechnete Tagesmitteltemperatur4.32813 °C
Gesamt - Niederschlag des Tages (in flüssiger Form)0.00 Liter / m²
Luftdruck (Maximum / Höchstwert) und Zeitpunkt der Messung22:45:00 Uhr1026.00 hPa
Luftdruck (Minimum / Tiefstwert) und Zeitpunkt der Messung00:45:00 Uhr1017.60 hPa
Errechneter Absolutwert der Luftdruckschwankungen des Tages8.40 hPa
Höchste gemessene Windgeschwindigkeit und Uhrzeit der Messung12:30:00 Uhr9.00 km/h
Errechnete Windhäufigkeit in Relation zu den Messwerten des Tages21.87500 %
Niedrigste Windkühle (Windchill) und Zeitpunkt der Messung22:00:00 Uhr-4.50 °C
Taupunkt (Maximum / Höchstwert) und Uhrzeit der Messung12:45:00 Uhr4.20 °C
Taupunkt (Minimum / Tiefstwert) und Uhrzeit der Messung23:30:00-3.70 °C
Anzahl der automatisch eingelesenen Messwerte 96

Detaillierte Wetter- und Klima- Messwerte für den 24.03.2017 in Holzhau im Erzgebirge (630m ü.NN)
ZeitTemperaturLuftdruckRel. LuftfeuchteWindWindrichtungWindchillTaupunktNiederschlag l/m²
23:45:00-2.10 °C1025.80 hPa91.00 %-3.50 °C 
23:30:00-2.10 °C1025.90 hPa90.00 %5.04 km/hSO-4.00 °C-3.70 °C 
23:15:00-2.10 °C1025.90 hPa90.00 %-3.70 °C 
23:00:00-1.90 °C1025.90 hPa89.00 %3.24 km/hSO-1.90 °C-3.70 °C 
22:45:00-1.90 °C1026.00 hPa89.00 %-3.70 °C 
22:30:00-1.70 °C1025.90 hPa89.00 %-3.50 °C 
22:15:00-1.50 °C1025.80 hPa88.00 %1.08 km/hSO-1.50 °C-3.40 °C 
22:00:00-1.30 °C1025.70 hPa88.00 %8.64 km/hSO-4.50 °C-3.20 °C 
21:45:00-1.10 °C1025.80 hPa88.00 %-3.00 °C 
21:30:00-0.90 °C1025.80 hPa88.00 %2.16 km/hOSO-0.90 °C-2.80 °C 
21:15:00-0.70 °C1025.70 hPa87.00 %-2.80 °C 
21:00:00-0.50 °C1025.70 hPa86.00 %-2.80 °C 
20:45:00-0.20 °C1025.60 hPa86.00 %-2.50 °C 
20:30:000.00 °C1025.60 hPa85.00 %-2.50 °C 
20:15:000.10 °C1025.50 hPa84.00 %-2.30 °C 
20:00:000.40 °C1025.50 hPa84.00 %-2.00 °C 
19:45:000.50 °C1025.30 hPa82.00 %-2.20 °C 
19:30:000.90 °C1025.50 hPa80.00 %-2.10 °C 
19:15:001.60 °C1025.30 hPa79.00 %-1.60 °C 
19:00:002.40 °C1025.00 hPa76.00 %-1.40 °C 
18:45:003.40 °C1024.90 hPa74.00 %-0.80 °C 
18:30:004.40 °C1024.90 hPa72.00 %-0.20 °C 
18:15:005.60 °C1024.80 hPa69.00 %0.40 °C 
18:00:006.40 °C1024.90 hPa67.00 %0.70 °C 
17:45:007.10 °C1024.70 hPa65.00 %1.44 km/hNNO7.10 °C1.00 °C 
17:30:007.80 °C1024.70 hPa64.00 %1.40 °C 
17:15:008.30 °C1024.60 hPa62.00 %1.50 °C 
17:00:008.80 °C1024.40 hPa61.00 %3.60 km/hONO8.80 °C1.70 °C 
16:45:009.10 °C1024.30 hPa60.00 %1.80 °C 
16:30:009.60 °C1024.40 hPa59.00 %2.00 °C 
16:15:0010.10 °C1024.40 hPa59.00 %2.50 °C 
16:00:0010.40 °C1024.50 hPa58.00 %2.50 °C 
15:45:0010.80 °C1024.60 hPa57.00 %2.88 km/hSO10.80 °C2.60 °C 
15:30:0010.70 °C1024.40 hPa60.00 %5.40 km/hOSO10.40 °C3.30 °C 
15:15:0010.80 °C1024.50 hPa58.00 %1.44 km/hOSO10.80 °C2.90 °C 
15:00:0010.70 °C1024.30 hPa58.00 %7.56 km/hOSO9.90 °C2.80 °C 
14:45:0010.70 °C1024.30 hPa61.00 %3.50 °C 
14:30:0010.40 °C1024.70 hPa61.00 %4.68 km/hWNW10.40 °C3.20 °C 
14:15:0010.10 °C1024.10 hPa61.00 %2.90 °C 
14:00:0010.10 °C1024.10 hPa62.00 %3.20 °C 
13:45:0010.40 °C1024.20 hPa63.00 %3.70 °C 
13:30:0010.00 °C1024.10 hPa64.00 %3.50 °C 
13:15:009.90 °C1024.20 hPa65.00 %1.08 km/hSO9.90 °C3.60 °C 
13:00:009.60 °C1024.00 hPa66.00 %7.20 km/hO8.70 °C3.60 °C 
12:45:009.20 °C1024.00 hPa71.00 %4.20 °C 
12:30:008.80 °C1024.10 hPa71.00 %9.00 km/hOSO7.40 °C3.80 °C 
12:15:007.90 °C1024.20 hPa74.00 %2.16 km/hNNW7.90 °C3.60 °C 
12:00:007.90 °C1024.00 hPa75.00 %1.80 km/hOSO7.90 °C3.80 °C 
11:45:006.90 °C1023.80 hPa77.00 %6.84 km/hSO5.70 °C3.20 °C 
11:30:006.90 °C1024.00 hPa77.00 %5.40 km/hOSO6.10 °C3.20 °C 
11:15:006.40 °C1023.80 hPa78.00 %2.90 °C 
11:00:006.20 °C1023.70 hPa80.00 %4.68 km/hNO6.20 °C3.00 °C 
10:45:006.40 °C1023.40 hPa79.00 %3.00 °C 
10:30:006.40 °C1023.20 hPa80.00 %3.20 °C 
10:15:006.30 °C1023.10 hPa81.00 %3.30 °C 
10:00:006.10 °C1022.90 hPa83.00 %3.40 °C 
09:45:005.60 °C1022.60 hPa85.00 %7.92 km/hO3.90 °C3.30 °C 
09:30:004.90 °C1022.80 hPa86.00 %2.80 °C 
09:15:004.60 °C1022.90 hPa88.00 %2.80 °C 
09:00:004.40 °C1022.80 hPa89.00 %2.80 °C 
08:45:004.10 °C1022.80 hPa90.00 %2.60 °C 
08:30:003.90 °C1022.30 hPa91.00 %2.60 °C 
08:15:003.60 °C1022.40 hPa92.00 %2.40 °C 
08:00:003.40 °C1022.10 hPa93.00 %2.40 °C 
07:45:003.20 °C1021.90 hPa93.00 %2.20 °C 
07:30:002.90 °C1021.70 hPa93.00 %1.90 °C 
07:15:002.60 °C1021.60 hPa93.00 %1.60 °C 
07:00:002.40 °C1021.30 hPa94.00 %1.50 °C 
06:45:002.40 °C1021.10 hPa94.00 %1.50 °C 
06:30:002.30 °C1020.90 hPa94.00 %1.40 °C 
06:15:002.40 °C1020.40 hPa94.00 %1.50 °C 
06:00:002.40 °C1020.30 hPa94.00 %1.50 °C 
05:45:002.40 °C1020.00 hPa94.00 %1.50 °C 
05:30:002.40 °C1020.00 hPa94.00 %1.50 °C 
05:15:002.40 °C1019.90 hPa94.00 %1.50 °C 
05:00:002.50 °C1019.80 hPa94.00 %1.60 °C 
04:45:002.60 °C1019.50 hPa94.00 %1.70 °C 
04:30:002.70 °C1019.30 hPa94.00 %1.80 °C 
04:15:002.70 °C1019.00 hPa94.00 %1.80 °C 
04:00:002.70 °C1018.90 hPa94.00 %1.80 °C 
03:45:002.80 °C1018.80 hPa94.00 %1.90 °C 
03:30:002.80 °C1018.50 hPa94.00 %1.90 °C 
03:15:002.80 °C1018.50 hPa93.00 %1.80 °C 
03:00:002.90 °C1018.30 hPa93.00 %1.90 °C 
02:45:002.90 °C1018.10 hPa93.00 %1.90 °C 
02:30:003.00 °C1017.90 hPa93.00 %2.00 °C 
02:15:003.00 °C1017.90 hPa93.00 %2.00 °C 
02:00:003.10 °C1017.90 hPa93.00 %2.10 °C 
01:45:003.20 °C1017.90 hPa93.00 %2.20 °C 
01:30:003.30 °C1017.90 hPa93.00 %2.30 °C 
01:15:003.40 °C1017.90 hPa93.00 %2.40 °C 
01:00:003.60 °C1017.80 hPa93.00 %2.60 °C 
00:45:003.60 °C1017.60 hPa92.00 %2.40 °C 
00:30:003.60 °C1017.60 hPa92.00 %2.40 °C 
00:15:003.70 °C1017.60 hPa92.00 %2.50 °C 
00:00:003.80 °C1017.60 hPa92.00 %2.60 °C 

Permanenter Link zu dieser Seite: Wetter im Erzgebirge am 24.03.2017
Performance-Info: Die Erstellung der Seite / Statistik(en) / Tabelle(n) erforderte 5 Datenbankserver-Abfrage(n) und dauerte 98 Millisekunden. (Dieser Messwert ist von der Gesamt-Auslastung des Servers abhängig.)
Erzgebirge - Wetter | Erzgebirge - Wetter (Mobilgeräte) | Komplette Klimadatenbank